Time;durP1;ratioP1;P1;durP2;ratioP2;P2;SDS_P1;SDS_P2;PMS_P1;PMS_P2;Temp;Humidity;BMP_temperature;BMP_pressure;BME280_temperature;BME280_humidity;BME280_pressure;Samples;Min_cycle;Max_cycle;Signal;HPM_P1;HPM_P2
2024/01/02 00:00:29;;;;;;;3.72;0.55;;;11.10;99.90;;;;;;5056898;28;20048;-70
2024/01/02 00:02:56;;;;;;;0.75;0.20;;;11.10;99.90;;;;;;5064414;28;20135;-68
2024/01/02 00:05:23;;;;;;;0.25;0.20;;;11.10;99.90;;;;;;5062114;28;20457;-69
2024/01/02 00:07:50;;;;;;;0.82;0.32;;;11.20;99.90;;;;;;5062758;28;20152;-68
2024/01/02 00:10:17;;;;;;;1.23;0.40;;;11.20;99.90;;;;;;5062049;28;20518;-68
2024/01/02 00:12:43;;;;;;;1.05;0.30;;;11.20;99.90;;;;;;5063583;28;20451;-69
2024/01/02 00:15:10;;;;;;;1.75;0.30;;;11.30;99.90;;;;;;5063851;28;20193;-68
2024/01/02 00:17:37;;;;;;;1.33;0.40;;;11.20;99.90;;;;;;5066303;28;20442;-69
2024/01/02 00:20:05;;;;;;;0.52;0.30;;;11.30;99.90;;;;;;5064867;28;20599;-69
2024/01/02 00:22:32;;;;;;;0.90;0.20;;;11.30;99.90;;;;;;5063710;28;20135;-68
2024/01/02 00:24:59;;;;;;;1.73;0.40;;;11.30;99.90;;;;;;5062771;28;20044;-68
2024/01/02 00:27:26;;;;;;;1.48;0.30;;;11.40;99.90;;;;;;5059960;28;20044;-68
2024/01/02 00:29:52;;;;;;;1.10;0.25;;;11.40;99.90;;;;;;5063557;28;20090;-68
2024/01/02 00:32:20;;;;;;;0.43;0.28;;;11.40;99.90;;;;;;5059342;28;20411;-68
2024/01/02 00:34:47;;;;;;;2.60;0.65;;;11.50;99.90;;;;;;5065306;28;20052;-69
2024/01/02 00:37:13;;;;;;;0.50;0.30;;;11.50;99.90;;;;;;5063717;28;20110;-69
2024/01/02 00:39:40;;;;;;;1.27;0.30;;;11.50;99.90;;;;;;5065985;28;20084;-68
2024/01/02 00:42:07;;;;;;;1.38;0.20;;;11.60;99.90;;;;;;5062825;28;20430;-69
2024/01/02 00:44:36;;;;;;;2.95;0.43;;;11.60;99.90;;;;;;5058593;28;20105;-69
2024/01/02 00:47:03;;;;;;;2.47;0.28;;;11.70;99.90;;;;;;5061946;28;20041;-68
2024/01/02 00:49:30;;;;;;;0.73;0.20;;;11.70;99.90;;;;;;5065926;28;20048;-68
2024/01/02 00:51:57;;;;;;;2.60;0.40;;;11.70;99.90;;;;;;5060335;28;20453;-69
2024/01/02 00:54:24;;;;;;;3.33;0.30;;;11.80;99.90;;;;;;5070087;28;20055;-68
2024/01/02 00:56:51;;;;;;;1.00;0.28;;;11.80;99.90;;;;;;5065010;28;20048;-69
2024/01/02 00:59:18;;;;;;;4.03;0.50;;;11.80;99.90;;;;;;5066258;28;20057;-69
2024/01/02 01:01:44;;;;;;;1.27;0.68;;;11.90;99.90;;;;;;5059184;28;20107;-69
2024/01/02 01:04:11;;;;;;;2.03;0.65;;;11.90;99.90;;;;;;5062791;28;20649;-68
2024/01/02 01:06:38;;;;;;;1.23;0.30;;;11.90;99.90;;;;;;5061367;28;20049;-68
2024/01/02 01:09:05;;;;;;;0.95;0.30;;;11.90;99.90;;;;;;5062253;28;20045;-68
2024/01/02 01:11:32;;;;;;;1.85;0.38;;;11.90;99.90;;;;;;5065322;28;20178;-68
2024/01/02 01:13:59;;;;;;;1.40;0.30;;;11.90;99.90;;;;;;5062831;28;20045;-69
2024/01/02 01:16:25;;;;;;;5.95;0.50;;;11.90;99.90;;;;;;5067799;28;20053;-69
2024/01/02 01:18:52;;;;;;;1.48;0.55;;;12.00;99.90;;;;;;5060494;28;20063;-69
2024/01/02 01:21:20;;;;;;;0.47;0.30;;;12.00;99.90;;;;;;5066935;28;20047;-69
2024/01/02 01:23:46;;;;;;;3.55;0.40;;;12.00;99.90;;;;;;5065190;28;20044;-69
2024/01/02 01:26:13;;;;;;;2.17;0.43;;;11.90;99.90;;;;;;5063286;28;20045;-69
2024/01/02 01:28:40;;;;;;;2.25;0.45;;;11.90;99.90;;;;;;5065762;28;20041;-69
2024/01/02 01:31:07;;;;;;;1.70;0.40;;;11.90;99.90;;;;;;5057486;28;20055;-69
2024/01/02 01:33:34;;;;;;;2.17;0.60;;;11.90;99.90;;;;;;5066099;28;20041;-68
2024/01/02 01:36:01;;;;;;;4.60;1.75;;;11.90;99.90;;;;;;5065778;28;20110;-68
2024/01/02 01:38:28;;;;;;;1.90;0.52;;;11.90;99.90;;;;;;5067441;28;20040;-69
2024/01/02 01:40:55;;;;;;;2.47;0.57;;;11.90;99.90;;;;;;5066515;28;20411;-69
2024/01/02 01:43:22;;;;;;;1.55;0.40;;;11.90;99.90;;;;;;5067396;28;20044;-69
2024/01/02 01:45:49;;;;;;;0.63;0.20;;;11.90;99.90;;;;;;5065969;28;20604;-69
2024/01/02 01:48:16;;;;;;;2.40;0.45;;;11.90;99.90;;;;;;5064767;28;20049;-69
2024/01/02 01:50:43;;;;;;;5.50;0.52;;;11.90;99.90;;;;;;5064847;28;20246;-69
2024/01/02 01:53:09;;;;;;;2.88;0.47;;;11.80;99.90;;;;;;5066250;28;20041;-69
2024/01/02 01:55:37;;;;;;;5.47;0.70;;;11.80;99.90;;;;;;5062170;28;20052;-69
2024/01/02 01:58:03;;;;;;;2.83;0.60;;;11.80;99.90;;;;;;5068523;28;20541;-69
2024/01/02 02:00:30;;;;;;;2.03;1.17;;;11.80;99.90;;;;;;5061649;28;20094;-69
2024/01/02 02:02:57;;;;;;;1.83;0.50;;;11.70;99.90;;;;;;5063317;28;20484;-69
2024/01/02 02:05:25;;;;;;;0.40;0.32;;;11.70;99.90;;;;;;5068742;28;20079;-69
2024/01/02 02:07:53;;;;;;;36.25;2.58;;;11.70;99.90;;;;;;5060612;28;20057;-68
2024/01/02 02:10:20;;;;;;;4.85;1.70;;;11.80;99.90;;;;;;5065042;28;20048;-68
2024/01/02 02:12:47;;;;;;;5.13;0.65;;;11.80;99.90;;;;;;5067640;28;20094;-68
2024/01/02 02:15:14;;;;;;;1.13;0.60;;;11.70;99.90;;;;;;5057106;28;20097;-69
2024/01/02 02:17:43;;;;;;;2.20;0.88;;;11.70;99.90;;;;;;5061400;28;20094;-69
2024/01/02 02:20:10;;;;;;;3.08;0.55;;;11.70;99.90;;;;;;5064805;28;20052;-68
2024/01/02 02:22:38;;;;;;;4.75;0.80;;;11.70;99.90;;;;;;5064868;28;20120;-69
2024/01/02 02:25:06;;;;;;;1.23;0.52;;;11.70;99.90;;;;;;5069759;28;20052;-69
2024/01/02 02:27:33;;;;;;;1.67;0.63;;;11.70;99.90;;;;;;5062840;28;20046;-69
2024/01/02 02:30:00;;;;;;;3.83;0.82;;;11.70;99.90;;;;;;5064522;28;20052;-69
2024/01/02 02:32:27;;;;;;;1.65;0.50;;;11.70;99.90;;;;;;5061267;28;20051;-69
2024/01/02 02:34:54;;;;;;;4.95;0.93;;;11.60;99.90;;;;;;5061167;28;20044;-70
2024/01/02 02:37:21;;;;;;;6.90;0.82;;;11.60;99.90;;;;;;5059683;28;20055;-69
2024/01/02 02:39:48;;;;;;;4.75;0.90;;;11.60;99.90;;;;;;5063992;28;20052;-69
2024/01/02 02:42:18;;;;;;;4.60;0.60;;;11.60;99.90;;;;;;5065324;28;20040;-68
2024/01/02 02:44:45;;;;;;;5.35;0.80;;;11.60;99.90;;;;;;5065761;28;20044;-69
2024/01/02 02:47:12;;;;;;;3.45;0.77;;;11.60;99.90;;;;;;5065583;28;20044;-68
2024/01/02 02:49:39;;;;;;;4.47;0.82;;;11.60;99.90;;;;;;5066380;28;20106;-69
2024/01/02 02:52:06;;;;;;;9.13;1.42;;;11.60;99.90;;;;;;5061717;28;20041;-69
2024/01/02 02:54:32;;;;;;;3.78;1.27;;;11.60;99.90;;;;;;5061404;28;20055;-69
2024/01/02 02:56:59;;;;;;;4.80;0.68;;;11.60;99.90;;;;;;5065669;28;20149;-68
2024/01/02 02:59:26;;;;;;;7.72;1.15;;;11.60;99.90;;;;;;5066236;28;20094;-69
2024/01/02 03:01:53;;;;;;;4.38;0.90;;;11.60;99.90;;;;;;5057275;28;20063;-69
2024/01/02 03:04:20;;;;;;;6.90;1.48;;;11.60;99.90;;;;;;5061929;28;20059;-69
2024/01/02 03:06:47;;;;;;;5.28;1.25;;;11.60;99.90;;;;;;5066635;28;20454;-69
2024/01/02 03:09:14;;;;;;;5.30;0.95;;;11.60;99.90;;;;;;5067393;28;20076;-69
2024/01/02 03:11:41;;;;;;;4.85;1.00;;;11.50;99.90;;;;;;5065121;28;20044;-69
2024/01/02 03:14:07;;;;;;;4.57;1.30;;;11.50;99.90;;;;;;5061837;28;20037;-69
2024/01/02 03:16:34;;;;;;;4.82;0.90;;;11.50;99.90;;;;;;5058201;28;20128;-67
2024/01/02 03:19:02;;;;;;;8.57;1.00;;;11.50;99.90;;;;;;5063930;28;20043;-70
2024/01/02 03:21:29;;;;;;;10.95;1.10;;;11.50;99.90;;;;;;5065466;28;20114;-70
2024/01/02 03:23:56;;;;;;;6.38;1.25;;;11.40;99.90;;;;;;5060853;28;20048;-70
2024/01/02 03:26:22;;;;;;;2.20;0.70;;;11.40;99.90;;;;;;5062975;28;20080;-68
2024/01/02 03:28:50;;;;;;;4.95;0.75;;;11.40;99.90;;;;;;5064564;28;20044;-68
2024/01/02 03:31:17;;;;;;;5.38;1.08;;;11.50;99.90;;;;;;5061820;28;20052;-67
2024/01/02 03:33:43;;;;;;;7.30;1.05;;;11.50;99.90;;;;;;5066879;28;20033;-67
2024/01/02 03:36:20;;;;;;;7.25;1.10;;;11.50;99.90;;;;;;5067090;28;20490;-69
2024/01/02 03:38:48;;;;;;;8.02;1.38;;;11.40;99.90;;;;;;5064604;28;20080;-69
2024/01/02 03:41:15;;;;;;;7.43;1.75;;;11.50;99.90;;;;;;5061082;28;20047;-68
2024/01/02 03:43:42;;;;;;;4.63;1.77;;;11.50;99.90;;;;;;5059155;28;20046;-68
2024/01/02 03:46:09;;;;;;;12.63;1.33;;;11.60;99.90;;;;;;5066437;28;20058;-68
2024/01/02 03:48:36;;;;;;;6.95;1.60;;;11.60;99.90;;;;;;5061449;28;20115;-68
2024/01/02 03:51:03;;;;;;;9.50;1.30;;;11.60;99.90;;;;;;5069349;28;20044;-68
2024/01/02 03:53:30;;;;;;;8.98;1.40;;;11.60;99.90;;;;;;5067578;28;20073;-69
2024/01/02 03:55:57;;;;;;;7.10;1.23;;;11.70;99.90;;;;;;5066283;28;20048;-68
2024/01/02 03:58:24;;;;;;;8.85;1.80;;;11.60;99.90;;;;;;5067798;28;20143;-68
2024/01/02 04:00:51;;;;;;;8.02;1.60;;;11.70;99.90;;;;;;5065492;28;20113;-68
2024/01/02 04:03:18;;;;;;;5.22;1.45;;;11.70;99.90;;;;;;5068768;28;20041;-68
2024/01/02 04:05:45;;;;;;;12.27;1.60;;;11.70;99.90;;;;;;5067108;28;20094;-68
2024/01/02 04:08:12;;;;;;;10.63;1.98;;;11.70;99.90;;;;;;5062637;28;20040;-68
2024/01/02 04:10:39;;;;;;;14.93;3.08;;;11.70;99.90;;;;;;5065961;28;20513;-68
2024/01/02 04:13:06;;;;;;;11.10;1.85;;;11.70;99.90;;;;;;5061830;28;20072;-68
2024/01/02 04:15:33;;;;;;;10.38;3.70;;;11.70;99.90;;;;;;5065552;28;20052;-68
2024/01/02 04:18:00;;;;;;;9.55;1.92;;;11.70;99.90;;;;;;5068854;28;20040;-68
2024/01/02 04:20:27;;;;;;;17.27;3.53;;;11.70;99.90;;;;;;5068400;28;20052;-69
2024/01/02 04:22:55;;;;;;;16.17;2.25;;;11.60;99.90;;;;;;5066800;28;20480;-68
2024/01/02 04:25:22;;;;;;;20.02;3.05;;;11.70;99.90;;;;;;5066047;28;20134;-68
2024/01/02 04:27:55;;;;;;;17.23;2.22;;;11.60;99.90;;;;;;5068086;28;20041;-68
2024/01/02 04:30:22;;;;;;;15.75;2.53;;;11.60;99.90;;;;;;5069408;28;20131;-69
2024/01/02 04:32:49;;;;;;;14.35;2.53;;;11.70;99.90;;;;;;5065704;28;20160;-69
2024/01/02 04:35:16;;;;;;;5.88;2.03;;;11.60;99.90;;;;;;5067953;28;20052;-68
2024/01/02 04:37:43;;;;;;;15.65;2.95;;;11.60;99.90;;;;;;5069179;28;20036;-68
2024/01/02 04:40:11;;;;;;;13.32;3.22;;;11.60;99.90;;;;;;5063586;28;20045;-68
2024/01/02 04:42:38;;;;;;;17.65;2.85;;;11.60;99.90;;;;;;5071299;28;20045;-68
2024/01/02 04:45:06;;;;;;;9.43;3.38;;;11.60;99.90;;;;;;5070494;28;20243;-69
2024/01/02 04:47:33;;;;;;;16.88;2.45;;;11.60;99.90;;;;;;5068892;28;20480;-68
2024/01/02 04:50:01;;;;;;;15.27;2.05;;;11.60;99.90;;;;;;5065955;28;20513;-69
2024/01/02 04:52:29;;;;;;;13.15;2.75;;;11.60;99.90;;;;;;5049473;28;20113;-68
2024/01/02 04:54:57;;;;;;;13.48;3.17;;;11.60;99.90;;;;;;5067668;28;20487;-69
2024/01/02 04:57:23;;;;;;;17.05;2.25;;;11.60;99.90;;;;;;5064898;28;20036;-69
2024/01/02 04:59:50;;;;;;;18.80;3.60;;;11.60;99.90;;;;;;5067025;28;20052;-69
2024/01/02 05:02:22;;;;;;;20.27;3.95;;;11.60;99.90;;;;;;5060919;28;20052;-69
2024/01/02 05:04:50;;;;;;;13.27;3.75;;;11.60;99.90;;;;;;5062636;28;20045;-69
2024/01/02 05:07:17;;;;;;;8.05;2.05;;;11.60;99.90;;;;;;5065292;28;20056;-68
2024/01/02 05:09:44;;;;;;;15.32;3.17;;;11.60;99.90;;;;;;5066198;28;20060;-69
2024/01/02 05:12:11;;;;;;;14.45;2.85;;;11.60;99.90;;;;;;5067924;28;20546;-68
2024/01/02 05:14:38;;;;;;;16.40;2.75;;;11.60;99.90;;;;;;5062788;28;21322;-69
2024/01/02 05:17:09;;;;;;;13.57;2.70;;;11.60;99.90;;;;;;5062010;28;20044;-68
2024/01/02 05:19:36;;;;;;;17.10;2.42;;;11.60;99.90;;;;;;5065083;28;20573;-69
2024/01/02 05:22:03;;;;;;;17.20;3.33;;;11.60;99.90;;;;;;5063429;28;20055;-69
2024/01/02 05:24:30;;;;;;;9.77;2.45;;;11.60;99.90;;;;;;5066509;28;20121;-69
2024/01/02 05:26:57;;;;;;;14.52;2.55;;;11.60;99.90;;;;;;5067113;28;20460;-71
2024/01/02 05:29:24;;;;;;;13.25;2.65;;;11.60;99.90;;;;;;5065818;28;20037;-69
2024/01/02 05:31:51;;;;;;;9.63;2.35;;;11.60;99.90;;;;;;5067618;28;20052;-70
2024/01/02 05:34:18;;;;;;;17.80;2.60;;;11.60;99.90;;;;;;5064094;28;20090;-70
2024/01/02 05:36:46;;;;;;;13.93;3.28;;;11.60;99.90;;;;;;5061905;28;20548;-70
2024/01/02 05:39:13;;;;;;;15.02;3.33;;;11.60;99.90;;;;;;5065877;28;20123;-70
2024/01/02 05:41:40;;;;;;;16.63;3.60;;;11.50;99.90;;;;;;5064217;28;20044;-69
2024/01/02 05:44:07;;;;;;;27.83;3.80;;;11.50;99.90;;;;;;5067173;28;20469;-69
2024/01/02 05:46:34;;;;;;;15.85;3.33;;;11.50;99.90;;;;;;5062334;28;20041;-68
2024/01/02 05:49:01;;;;;;;22.75;5.00;;;11.50;99.90;;;;;;5065552;28;20048;-69
2024/01/02 05:51:29;;;;;;;21.52;3.55;;;11.50;99.90;;;;;;5066732;28;20095;-69
2024/01/02 05:53:55;;;;;;;28.50;4.65;;;11.40;99.90;;;;;;5063466;28;20041;-69
2024/01/02 05:56:22;;;;;;;24.20;4.38;;;11.40;99.90;;;;;;5059255;28;20566;-69
2024/01/02 05:58:49;;;;;;;38.47;5.60;;;11.50;99.90;;;;;;5063696;28;20067;-68
2024/01/02 06:01:16;;;;;;;40.83;6.97;;;11.50;99.90;;;;;;5057963;28;20048;-69
2024/01/02 06:03:43;;;;;;;49.17;7.45;;;11.50;99.90;;;;;;5059301;28;20036;-69
2024/01/02 06:06:10;;;;;;;31.52;5.75;;;11.50;99.90;;;;;;5061604;28;20079;-69
2024/01/02 06:08:42;;;;;;;33.40;6.63;;;11.50;99.90;;;;;;5065997;28;20043;-69
2024/01/02 06:11:12;;;;;;;31.20;6.10;;;11.50;99.90;;;;;;5063109;28;20407;-69
2024/01/02 06:13:39;;;;;;;28.00;5.50;;;11.50;99.90;;;;;;5065913;28;20124;-69
2024/01/02 06:16:09;;;;;;;34.75;5.75;;;11.50;99.90;;;;;;5062435;28;20052;-69
2024/01/02 06:18:37;;;;;;;28.17;5.25;;;11.50;99.90;;;;;;5054704;28;20041;-69
2024/01/02 06:21:04;;;;;;;39.78;7.15;;;11.50;99.90;;;;;;5063408;28;20079;-69
2024/01/02 06:23:33;;;;;;;41.42;5.90;;;11.60;99.90;;;;;;5065507;28;20048;-69
2024/01/02 06:26:13;;;;;;;35.20;6.22;;;11.50;99.90;;;;;;5060348;28;20129;-69
2024/01/02 06:28:40;;;;;;;50.13;7.63;;;11.50;99.90;;;;;;5066913;28;20083;-69
2024/01/02 06:31:07;;;;;;;32.70;5.50;;;11.50;99.90;;;;;;5060970;28;20084;-69
2024/01/02 06:33:33;;;;;;;47.33;6.00;;;11.50;99.90;;;;;;5067292;28;20416;-70
2024/01/02 06:36:03;;;;;;;45.95;8.70;;;11.60;99.90;;;;;;5064057;28;20063;-68
2024/01/02 06:38:30;;;;;;;38.88;6.05;;;11.60;99.90;;;;;;5059944;28;20434;-69
2024/01/02 06:40:57;;;;;;;37.00;6.38;;;11.60;99.90;;;;;;5065157;28;20511;-69
2024/01/02 06:43:24;;;;;;;34.97;5.60;;;11.60;99.90;;;;;;5066441;28;20041;-69
2024/01/02 06:45:51;;;;;;;44.03;6.38;;;11.60;99.90;;;;;;5064893;28;20106;-70
2024/01/02 06:48:17;;;;;;;30.80;6.95;;;11.60;99.90;;;;;;5064442;28;20495;-69
2024/01/02 06:50:45;;;;;;;40.38;6.20;;;11.60;99.90;;;;;;5063586;28;20077;-69
2024/01/02 06:53:12;;;;;;;34.30;5.53;;;11.60;99.90;;;;;;5061168;28;20040;-69
2024/01/02 06:55:39;;;;;;;32.90;5.38;;;11.60;99.90;;;;;;5063832;28;20065;-69
2024/01/02 06:58:06;;;;;;;37.17;5.63;;;11.60;99.90;;;;;;5065039;28;20080;-70
2024/01/02 07:00:33;;;;;;;31.88;5.93;;;11.60;99.90;;;;;;5061872;28;20072;-70
2024/01/02 07:03:00;;;;;;;30.92;5.80;;;11.60;99.90;;;;;;5065521;28;20139;-69
2024/01/02 07:05:28;;;;;;;33.90;5.68;;;11.60;99.90;;;;;;5065052;28;20052;-71
2024/01/02 07:07:56;;;;;;;36.17;7.60;;;11.60;99.90;;;;;;5065418;28;20702;-70
2024/01/02 07:10:24;;;;;;;24.30;5.00;;;11.60;99.90;;;;;;5063613;28;20084;-68
2024/01/02 07:12:51;;;;;;;41.50;6.15;;;11.50;99.90;;;;;;5066168;28;20044;-69
2024/01/02 07:15:18;;;;;;;33.45;6.22;;;11.60;99.90;;;;;;5065112;28;20056;-69
2024/01/02 07:17:48;;;;;;;25.77;6.70;;;11.50;99.90;;;;;;5065849;28;20102;-69
2024/01/02 07:20:15;;;;;;;36.90;5.82;;;11.60;99.90;;;;;;5066863;28;20044;-70
2024/01/02 07:22:42;;;;;;;35.95;7.22;;;11.60;99.90;;;;;;5062210;28;20059;-70
2024/01/02 07:25:11;;;;;;;32.08;5.60;;;11.60;99.90;;;;;;5069365;28;20052;-70
2024/01/02 07:27:38;;;;;;;40.72;6.18;;;11.60;99.90;;;;;;5067843;28;20226;-70
2024/01/02 07:30:05;;;;;;;28.10;5.20;;;11.60;99.90;;;;;;5070328;28;20126;-69
2024/01/02 07:32:34;;;;;;;30.40;4.82;;;11.50;99.90;;;;;;5061720;28;20062;-70
2024/01/02 07:35:01;;;;;;;32.28;5.53;;;11.50;99.90;;;;;;5059836;28;20044;-69
2024/01/02 07:37:28;;;;;;;23.67;4.38;;;11.50;99.90;;;;;;5059000;28;20043;-69
2024/01/02 07:39:55;;;;;;;23.35;5.03;;;11.50;99.90;;;;;;5064022;28;21204;-70
2024/01/02 07:42:22;;;;;;;33.85;5.97;;;11.40;99.90;;;;;;5069621;28;20044;-69
2024/01/02 07:44:49;;;;;;;35.33;5.45;;;11.40;99.90;;;;;;5068679;28;20203;-70
2024/01/02 07:47:16;;;;;;;30.17;5.03;;;11.40;99.90;;;;;;5069669;28;20152;-69
2024/01/02 07:49:44;;;;;;;29.10;5.25;;;11.40;99.90;;;;;;5066389;28;20044;-70
2024/01/02 07:52:10;;;;;;;26.40;4.97;;;11.40;99.90;;;;;;5068114;28;20045;-70
2024/01/02 07:54:38;;;;;;;19.98;4.47;;;11.30;99.90;;;;;;4715273;28;10000540;-69
2024/01/02 07:57:05;;;;;;;24.75;5.80;;;11.30;99.90;;;;;;5056063;28;20523;-69
2024/01/02 07:59:36;;;;;;;21.08;3.80;;;11.30;99.90;;;;;;5062745;28;20446;-71
2024/01/02 08:02:03;;;;;;;25.02;3.53;;;11.30;99.90;;;;;;5057291;28;20053;-70
2024/01/02 08:04:29;;;;;;;17.40;3.97;;;11.30;99.90;;;;;;5062555;28;20736;-70
2024/01/02 08:06:59;;;;;;;18.52;3.08;;;11.20;99.90;;;;;;5061330;28;20052;-71
2024/01/02 08:09:26;;;;;;;18.60;3.00;;;11.30;99.90;;;;;;5062701;28;20048;-70
2024/01/02 08:11:53;;;;;;;20.98;4.30;;;11.30;99.90;;;;;;5063103;28;20055;-70
2024/01/02 08:14:20;;;;;;;24.60;4.30;;;11.20;99.90;;;;;;5062455;28;20068;-71
2024/01/02 08:16:47;;;;;;;15.38;2.75;;;11.20;99.90;;;;;;5065061;28;20516;-70
2024/01/02 08:19:14;;;;;;;19.08;3.08;;;11.20;99.90;;;;;;5064373;28;20040;-69
2024/01/02 08:21:41;;;;;;;20.92;3.10;;;11.20;99.90;;;;;;5063935;28;20044;-70
2024/01/02 08:24:08;;;;;;;12.15;2.58;;;11.20;99.90;;;;;;5066862;28;20037;-69
2024/01/02 08:26:36;;;;;;;16.38;2.95;;;11.20;99.90;;;;;;5066641;28;20052;-69
2024/01/02 08:29:03;;;;;;;15.07;3.22;;;11.20;99.90;;;;;;5062583;28;20044;-68
2024/01/02 08:31:30;;;;;;;15.52;3.45;;;11.20;99.90;;;;;;5063256;28;20044;-70
2024/01/02 08:33:57;;;;;;;9.93;2.65;;;11.20;99.90;;;;;;5064361;28;20090;-68
2024/01/02 08:36:24;;;;;;;14.18;2.22;;;11.20;99.90;;;;;;5064126;28;20049;-70
2024/01/02 08:38:51;;;;;;;12.98;2.55;;;11.20;99.90;;;;;;5063292;28;20052;-70
2024/01/02 08:41:18;;;;;;;16.13;2.70;;;11.20;99.90;;;;;;5066720;28;20419;-69
2024/01/02 08:43:45;;;;;;;10.40;1.98;;;11.20;99.90;;;;;;5067765;28;20155;-69
2024/01/02 08:46:13;;;;;;;9.65;2.47;;;11.20;99.90;;;;;;5066622;28;20045;-67
2024/01/02 08:48:40;;;;;;;9.88;2.03;;;11.20;99.90;;;;;;5060369;28;20403;-69
2024/01/02 08:51:07;;;;;;;6.43;1.42;;;11.10;99.90;;;;;;5063737;28;20553;-68
2024/01/02 08:53:34;;;;;;;6.35;1.92;;;11.20;99.90;;;;;;5067640;28;20045;-68
2024/01/02 08:56:01;;;;;;;10.15;1.48;;;11.20;99.90;;;;;;5067223;28;20578;-68
2024/01/02 08:58:28;;;;;;;8.15;1.42;;;11.20;99.90;;;;;;5064621;28;20044;-68
2024/01/02 09:00:55;;;;;;;7.65;1.67;;;11.20;99.90;;;;;;5068315;28;20051;-68
2024/01/02 09:03:22;;;;;;;3.60;1.00;;;11.10;99.90;;;;;;5067290;28;20052;-69
2024/01/02 09:05:49;;;;;;;4.13;1.10;;;11.10;99.90;;;;;;5066362;28;20048;-68
2024/01/02 09:08:16;;;;;;;8.57;1.35;;;11.10;99.90;;;;;;5059424;28;20057;-68
2024/01/02 09:10:43;;;;;;;5.03;1.05;;;11.10;99.90;;;;;;5065188;28;20048;-67
2024/01/02 09:13:11;;;;;;;3.22;1.23;;;11.20;99.90;;;;;;5062395;28;20049;-67
2024/01/02 09:15:39;;;;;;;6.15;0.90;;;11.10;99.90;;;;;;5054973;28;20041;-68
2024/01/02 09:18:06;;;;;;;5.43;1.08;;;11.20;99.90;;;;;;5066239;28;20063;-71
2024/01/02 09:20:34;;;;;;;4.53;0.98;;;11.20;99.90;;;;;;5067485;28;20128;-71
2024/01/02 09:23:01;;;;;;;2.92;0.80;;;11.20;99.90;;;;;;5068197;28;20580;-71
2024/01/02 09:25:28;;;;;;;5.03;0.98;;;11.20;99.90;;;;;;5067497;28;20044;-71
2024/01/02 09:27:58;;;;;;;2.35;0.75;;;11.10;99.90;;;;;;5063721;28;20095;-71
2024/01/02 09:30:25;;;;;;;1.63;0.60;;;11.20;99.90;;;;;;5061507;28;20534;-69
2024/01/02 09:32:52;;;;;;;2.60;0.70;;;11.20;99.90;;;;;;5066185;28;20096;-72
2024/01/02 09:35:19;;;;;;;2.83;0.65;;;11.20;99.90;;;;;;5059504;28;20121;-73
2024/01/02 09:37:46;;;;;;;3.25;0.90;;;11.20;99.90;;;;;;4707619;28;10000283;-73
2024/01/02 09:40:47;;;;;;;4.38;0.80;;;11.20;99.90;;;;;;5050668;28;20491;-72
2024/01/02 09:43:40;;;;;;;0.20;0.20;;;11.20;99.90;;;;;;5052419;28;20048;-73
2024/01/02 09:46:49;;;;;;;0.50;0.30;;;11.30;99.90;;;;;;5061132;28;20040;-71
2024/01/02 09:49:16;;;;;;;2.92;0.38;;;11.30;99.90;;;;;;4998665;28;20053;-72
2024/01/02 09:51:51;;;;;;;0.25;0.25;;;11.40;99.90;;;;;;5046596;28;20048;-72
2024/01/02 09:54:45;;;;;;;0.45;0.32;;;11.50;99.90;;;;;;5060448;28;20524;-71
2024/01/02 09:57:40;;;;;;;2.05;0.32;;;11.50;99.90;;;;;;5067294;28;20079;-72
2024/01/02 10:00:45;;;;;;;0.88;0.22;;;11.60;99.90;;;;;;5048028;28;20082;-73
2024/01/02 10:03:36;;;;;;;1.70;0.50;;;11.70;99.90;;;;;;5040721;28;20049;-68
2024/01/02 10:06:06;;;;;;;2.50;0.20;;;11.70;99.90;;;;;;5056466;28;20060;-71
2024/01/02 10:08:52;;;;;;;2.88;0.50;;;11.80;99.90;;;;;;5056259;28;20385;-73
2024/01/02 10:11:34;;;;;;;1.30;0.30;;;11.80;99.90;;;;;;5051596;28;20048;-73
2024/01/02 10:14:05;;;;;;;6.68;0.50;;;11.90;99.90;;;;;;5023147;28;20098;-73
2024/01/02 10:16:38;;;;;;;0.22;0.20;;;11.90;99.90;;;;;;5060978;28;20048;-71
2024/01/02 10:19:19;;;;;;;2.00;0.40;;;12.00;99.90;;;;;;5058176;28;20102;-72
2024/01/02 10:22:17;;;;;;;2.17;0.60;;;12.00;99.90;;;;;;5036185;28;20055;-73
2024/01/02 10:24:50;;;;;;;1.40;0.30;;;12.10;99.90;;;;;;5040824;28;20072;-73
2024/01/02 10:27:21;;;;;;;3.22;0.60;;;12.10;99.90;;;;;;5057557;28;20049;-72
2024/01/02 10:30:08;;;;;;;6.15;0.43;;;12.10;99.90;;;;;;5055015;28;20049;-73
2024/01/02 10:32:41;;;;;;;2.15;0.57;;;12.20;99.90;;;;;;5056308;28;20137;-73
2024/01/02 10:35:12;;;;;;;4.93;0.60;;;12.20;99.90;;;;;;5058741;28;20045;-73
2024/01/02 10:37:40;;;;;;;5.95;0.80;;;12.20;99.90;;;;;;5059369;28;20098;-72
2024/01/02 10:40:23;;;;;;;2.15;0.77;;;12.30;99.90;;;;;;5056469;28;20036;-73
2024/01/02 10:42:53;;;;;;;5.78;1.30;;;12.30;99.90;;;;;;5056049;28;20045;-74
2024/01/02 10:45:42;;;;;;;11.45;1.25;;;12.30;99.90;;;;;;5051797;28;20135;-72
2024/01/02 10:48:38;;;;;;;13.18;1.77;;;12.30;99.90;;;;;;5057821;28;20067;-72
2024/01/02 10:51:09;;;;;;;7.68;1.63;;;12.30;99.90;;;;;;5055960;28;20123;-73
2024/01/02 10:53:49;;;;;;;10.82;2.20;;;12.30;99.90;;;;;;5062562;28;20507;-72
2024/01/02 10:56:43;;;;;;;16.80;3.80;;;12.30;99.90;;;;;;5062010;28;20052;-72
2024/01/02 10:59:29;;;;;;;15.32;2.85;;;12.30;99.90;;;;;;5062592;28;20052;-73
2024/01/02 11:02:19;;;;;;;19.02;3.47;;;12.30;99.90;;;;;;5060151;28;20060;-74
2024/01/02 11:04:55;;;;;;;17.60;3.35;;;12.30;99.90;;;;;;5063422;28;20052;-74
2024/01/02 11:07:22;;;;;;;11.02;2.40;;;12.30;99.90;;;;;;5061528;28;20052;-72
2024/01/02 11:10:01;;;;;;;19.33;3.10;;;12.30;99.90;;;;;;5062718;28;20051;-72
2024/01/02 11:12:34;;;;;;;16.80;2.45;;;12.30;99.90;;;;;;5054373;28;20045;-73
2024/01/02 11:15:01;;;;;;;16.80;3.13;;;12.30;99.90;;;;;;5061642;28;20255;-73
2024/01/02 11:17:28;;;;;;;13.98;2.78;;;12.30;99.90;;;;;;5058779;28;20044;-73
2024/01/02 11:20:03;;;;;;;10.10;2.58;;;12.30;99.90;;;;;;5041317;28;20048;-74
2024/01/02 11:22:35;;;;;;;11.00;2.28;;;12.30;99.90;;;;;;5053233;28;20049;-72
2024/01/02 11:25:03;;;;;;;12.50;2.38;;;12.30;99.90;;;;;;5046791;28;20131;-72
2024/01/02 11:27:30;;;;;;;12.32;1.85;;;12.20;99.90;;;;;;5048224;28;20975;-72
2024/01/02 11:29:57;;;;;;;10.23;1.63;;;12.20;99.90;;;;;;5062327;28;20051;-72
2024/01/02 11:32:47;;;;;;;8.13;1.52;;;12.30;99.90;;;;;;5059527;28;20048;-71
2024/01/02 11:35:14;;;;;;;6.18;1.67;;;12.20;99.90;;;;;;5058138;28;20081;-72
2024/01/02 11:37:45;;;;;;;4.80;1.10;;;12.20;99.90;;;;;;5045541;28;20217;-71
2024/01/02 11:40:27;;;;;;;3.13;0.80;;;12.20;99.90;;;;;;5063098;28;20060;-72
2024/01/02 11:43:26;;;;;;;2.67;0.60;;;12.20;99.90;;;;;;5056434;28;20048;-71
2024/01/02 11:45:57;;;;;;;1.85;1.00;;;12.20;99.90;;;;;;5056609;28;20864;-73
2024/01/02 11:48:57;;;;;;;1.20;0.38;;;12.20;99.90;;;;;;5055384;28;20051;-72
2024/01/02 11:51:26;;;;;;;1.70;0.65;;;12.20;99.90;;;;;;5061353;28;20476;-72
2024/01/02 11:54:14;;;;;;;2.00;0.90;;;12.20;99.90;;;;;;5063041;28;20048;-73
2024/01/02 11:56:42;;;;;;;4.20;0.75;;;12.10;99.90;;;;;;5060537;28;20056;-73
2024/01/02 11:59:32;;;;;;;0.65;0.40;;;12.10;99.90;;;;;;5063556;28;20045;-73
2024/01/02 12:02:09;;;;;;;0.52;0.28;;;12.10;99.90;;;;;;5061192;28;20075;-73
2024/01/02 12:04:42;;;;;;;2.50;0.40;;;12.10;99.90;;;;;;5063336;28;20487;-73
2024/01/02 12:07:12;;;;;;;4.00;0.45;;;12.10;99.90;;;;;;5060763;28;20536;-73
2024/01/02 12:09:42;;;;;;;0.40;0.20;;;12.10;99.90;;;;;;5056934;28;20097;-73
2024/01/02 12:12:16;;;;;;;2.30;0.40;;;12.10;99.90;;;;;;5057708;28;20533;-72
2024/01/02 12:14:54;;;;;;;;;;;12.10;99.90;;;;;;5059958;28;21115;-70
2024/01/02 12:17:22;;;;;;;0.65;0.30;;;12.20;99.90;;;;;;5062651;28;20175;-72
2024/01/02 12:19:56;;;;;;;0.60;0.30;;;12.10;99.90;;;;;;5062515;28;20066;-72
2024/01/02 12:22:23;;;;;;;0.88;0.30;;;12.20;99.90;;;;;;5069973;28;20052;-70
2024/01/02 12:24:50;;;;;;;0.52;0.20;;;12.20;99.90;;;;;;5058297;28;20466;-71
2024/01/02 12:27:20;;;;;;;0.85;0.38;;;12.20;99.90;;;;;;5061288;28;20059;-72
2024/01/02 12:29:50;;;;;;;0.40;0.30;;;12.20;99.90;;;;;;5057250;28;20044;-71
2024/01/02 12:32:35;;;;;;;1.08;0.30;;;12.30;99.90;;;;;;5061113;28;20139;-69
2024/01/02 12:35:08;;;;;;;1.48;0.32;;;12.30;99.90;;;;;;5063209;28;20273;-71
2024/01/02 12:37:56;;;;;;;3.33;0.40;;;12.30;99.90;;;;;;5060909;28;20079;-71
2024/01/02 12:40:23;;;;;;;0.85;0.30;;;12.40;99.90;;;;;;5048801;28;20546;-71
2024/01/02 12:42:49;;;;;;;0.10;0.10;;;12.40;99.90;;;;;;5065083;28;20052;-70
2024/01/02 12:45:18;;;;;;;2.83;0.30;;;12.40;99.90;;;;;;5063106;28;20053;-70
2024/01/02 12:47:46;;;;;;;1.15;0.40;;;12.40;99.90;;;;;;5055904;28;20152;-69
2024/01/02 12:50:14;;;;;;;0.65;0.50;;;12.50;99.90;;;;;;5053246;28;20135;-70
2024/01/02 12:52:48;;;;;;;0.70;0.30;;;12.40;99.90;;;;;;5058171;28;20059;-71
2024/01/02 12:55:15;;;;;;;4.43;0.68;;;12.40;99.90;;;;;;5054736;28;20049;-70